sensor_id;sensor_type;location;lat;lon;timestamp;P1;durP1;ratioP1;P2;durP2;ratioP2
72573;SDS011;60603;52.548;13.420;2023-02-15T00:01:49;35.65;;;14.85;;
72573;SDS011;60603;52.548;13.420;2023-02-15T00:04:16;33.53;;;14.70;;
72573;SDS011;60603;52.548;13.420;2023-02-15T00:06:49;36.70;;;15.35;;
72573;SDS011;60603;52.548;13.420;2023-02-15T00:09:15;38.95;;;15.02;;
72573;SDS011;60603;52.548;13.420;2023-02-15T00:11:41;45.65;;;16.73;;
72573;SDS011;60603;52.548;13.420;2023-02-15T00:14:11;43.47;;;17.30;;
72573;SDS011;60603;52.548;13.420;2023-02-15T00:16:37;37.03;;;15.40;;
72573;SDS011;60603;52.548;13.420;2023-02-15T00:19:04;38.35;;;16.45;;
72573;SDS011;60603;52.548;13.420;2023-02-15T00:21:30;37.28;;;15.15;;
72573;SDS011;60603;52.548;13.420;2023-02-15T00:23:58;40.33;;;16.77;;
72573;SDS011;60603;52.548;13.420;2023-02-15T00:26:25;43.72;;;17.35;;
72573;SDS011;60603;52.548;13.420;2023-02-15T00:28:51;38.70;;;15.07;;
72573;SDS011;60603;52.548;13.420;2023-02-15T00:31:18;41.30;;;16.17;;
72573;SDS011;60603;52.548;13.420;2023-02-15T00:33:44;35.60;;;15.07;;
72573;SDS011;60603;52.548;13.420;2023-02-15T00:36:10;42.40;;;16.52;;
72573;SDS011;60603;52.548;13.420;2023-02-15T00:38:36;36.92;;;16.63;;
72573;SDS011;60603;52.548;13.420;2023-02-15T00:41:03;43.50;;;16.67;;
72573;SDS011;60603;52.548;13.420;2023-02-15T00:43:31;42.17;;;17.38;;
72573;SDS011;60603;52.548;13.420;2023-02-15T00:45:57;38.17;;;16.98;;
72573;SDS011;60603;52.548;13.420;2023-02-15T00:48:23;45.55;;;18.02;;
72573;SDS011;60603;52.548;13.420;2023-02-15T00:50:53;40.83;;;17.25;;
72573;SDS011;60603;52.548;13.420;2023-02-15T00:53:21;45.63;;;19.00;;
72573;SDS011;60603;52.548;13.420;2023-02-15T00:55:47;39.50;;;16.25;;
72573;SDS011;60603;52.548;13.420;2023-02-15T00:58:14;42.58;;;17.17;;
72573;SDS011;60603;52.548;13.420;2023-02-15T01:00:40;43.72;;;18.17;;
72573;SDS011;60603;52.548;13.420;2023-02-15T01:03:08;40.78;;;17.02;;
72573;SDS011;60603;52.548;13.420;2023-02-15T01:05:34;45.03;;;18.00;;
72573;SDS011;60603;52.548;13.420;2023-02-15T01:08:00;41.10;;;17.52;;
72573;SDS011;60603;52.548;13.420;2023-02-15T01:10:26;45.25;;;17.63;;
72573;SDS011;60603;52.548;13.420;2023-02-15T01:12:53;47.97;;;17.38;;
72573;SDS011;60603;52.548;13.420;2023-02-15T01:15:19;47.85;;;17.98;;
72573;SDS011;60603;52.548;13.420;2023-02-15T01:17:45;43.60;;;18.38;;
72573;SDS011;60603;52.548;13.420;2023-02-15T01:20:17;45.08;;;19.13;;
72573;SDS011;60603;52.548;13.420;2023-02-15T01:22:43;50.40;;;18.30;;
72573;SDS011;60603;52.548;13.420;2023-02-15T01:25:09;48.40;;;18.10;;
72573;SDS011;60603;52.548;13.420;2023-02-15T01:27:35;47.65;;;17.88;;
72573;SDS011;60603;52.548;13.420;2023-02-15T01:30:01;47.42;;;18.73;;
72573;SDS011;60603;52.548;13.420;2023-02-15T01:32:27;47.15;;;18.92;;
72573;SDS011;60603;52.548;13.420;2023-02-15T01:34:53;46.28;;;18.20;;
72573;SDS011;60603;52.548;13.420;2023-02-15T01:37:19;50.88;;;18.70;;
72573;SDS011;60603;52.548;13.420;2023-02-15T01:39:44;47.13;;;16.90;;
72573;SDS011;60603;52.548;13.420;2023-02-15T01:42:10;48.10;;;18.05;;
72573;SDS011;60603;52.548;13.420;2023-02-15T01:47:09;50.97;;;18.98;;
72573;SDS011;60603;52.548;13.420;2023-02-15T01:49:36;49.78;;;17.63;;
72573;SDS011;60603;52.548;13.420;2023-02-15T01:52:03;45.28;;;16.85;;
72573;SDS011;60603;52.548;13.420;2023-02-15T01:54:30;47.85;;;18.60;;
72573;SDS011;60603;52.548;13.420;2023-02-15T01:56:59;43.67;;;17.42;;
72573;SDS011;60603;52.548;13.420;2023-02-15T01:59:29;48.95;;;18.73;;
72573;SDS011;60603;52.548;13.420;2023-02-15T02:01:58;52.33;;;19.88;;
72573;SDS011;60603;52.548;13.420;2023-02-15T02:04:59;50.38;;;19.33;;
72573;SDS011;60603;52.548;13.420;2023-02-15T02:07:19;55.63;;;20.35;;
72573;SDS011;60603;52.548;13.420;2023-02-15T02:09:46;52.05;;;19.63;;
72573;SDS011;60603;52.548;13.420;2023-02-15T02:12:13;51.28;;;20.33;;
72573;SDS011;60603;52.548;13.420;2023-02-15T02:14:39;56.47;;;20.70;;
72573;SDS011;60603;52.548;13.420;2023-02-15T02:34:13;61.83;;;21.65;;
72573;SDS011;60603;52.548;13.420;2023-02-15T02:37:03;52.35;;;20.15;;
72573;SDS011;60603;52.548;13.420;2023-02-15T02:39:49;60.25;;;21.83;;
72573;SDS011;60603;52.548;13.420;2023-02-15T02:42:24;61.10;;;20.67;;
72573;SDS011;60603;52.548;13.420;2023-02-15T02:45:01;59.67;;;20.80;;
72573;SDS011;60603;52.548;13.420;2023-02-15T02:50:13;52.65;;;18.80;;
72573;SDS011;60603;52.548;13.420;2023-02-15T02:58:08;58.75;;;20.73;;
72573;SDS011;60603;52.548;13.420;2023-02-15T03:00:45;60.67;;;21.85;;
72573;SDS011;60603;52.548;13.420;2023-02-15T03:05:47;66.65;;;21.67;;
72573;SDS011;60603;52.548;13.420;2023-02-15T03:08:15;59.53;;;21.10;;
72573;SDS011;60603;52.548;13.420;2023-02-15T03:10:48;59.92;;;20.80;;
72573;SDS011;60603;52.548;13.420;2023-02-15T03:13:14;67.03;;;23.02;;
72573;SDS011;60603;52.548;13.420;2023-02-15T03:15:41;72.30;;;23.55;;
72573;SDS011;60603;52.548;13.420;2023-02-15T03:18:28;64.43;;;21.08;;
72573;SDS011;60603;52.548;13.420;2023-02-15T03:23:23;72.40;;;24.02;;
72573;SDS011;60603;52.548;13.420;2023-02-15T03:25:52;68.47;;;22.23;;
72573;SDS011;60603;52.548;13.420;2023-02-15T03:28:23;82.45;;;25.80;;
72573;SDS011;60603;52.548;13.420;2023-02-15T03:30:53;71.80;;;23.73;;
72573;SDS011;60603;52.548;13.420;2023-02-15T03:33:21;72.10;;;24.70;;
72573;SDS011;60603;52.548;13.420;2023-02-15T03:35:51;80.15;;;24.20;;
72573;SDS011;60603;52.548;13.420;2023-02-15T03:38:20;77.22;;;24.50;;
72573;SDS011;60603;52.548;13.420;2023-02-15T03:40:50;79.50;;;26.08;;
72573;SDS011;60603;52.548;13.420;2023-02-15T03:46:17;73.30;;;25.63;;
72573;SDS011;60603;52.548;13.420;2023-02-15T03:48:49;85.57;;;26.35;;
72573;SDS011;60603;52.548;13.420;2023-02-15T03:51:18;84.78;;;28.52;;
72573;SDS011;60603;52.548;13.420;2023-02-15T03:53:59;86.68;;;29.55;;
72573;SDS011;60603;52.548;13.420;2023-02-15T03:56:30;84.20;;;27.25;;
72573;SDS011;60603;52.548;13.420;2023-02-15T03:58:56;90.00;;;28.00;;
72573;SDS011;60603;52.548;13.420;2023-02-15T04:01:48;89.38;;;28.85;;
72573;SDS011;60603;52.548;13.420;2023-02-15T04:04:25;85.20;;;28.30;;
72573;SDS011;60603;52.548;13.420;2023-02-15T04:07:06;83.43;;;26.80;;
72573;SDS011;60603;52.548;13.420;2023-02-15T04:09:33;83.10;;;29.25;;
72573;SDS011;60603;52.548;13.420;2023-02-15T04:12:17;81.65;;;27.25;;
72573;SDS011;60603;52.548;13.420;2023-02-15T04:14:43;80.50;;;27.42;;
72573;SDS011;60603;52.548;13.420;2023-02-15T04:17:28;82.75;;;27.67;;
72573;SDS011;60603;52.548;13.420;2023-02-15T04:19:54;79.82;;;28.80;;
72573;SDS011;60603;52.548;13.420;2023-02-15T04:22:38;79.85;;;28.40;;
72573;SDS011;60603;52.548;13.420;2023-02-15T04:25:23;78.68;;;26.35;;
72573;SDS011;60603;52.548;13.420;2023-02-15T04:27:53;82.85;;;25.92;;
72573;SDS011;60603;52.548;13.420;2023-02-15T04:30:20;77.45;;;27.63;;
72573;SDS011;60603;52.548;13.420;2023-02-15T04:32:48;85.82;;;24.85;;
72573;SDS011;60603;52.548;13.420;2023-02-15T04:35:14;80.05;;;27.13;;
72573;SDS011;60603;52.548;13.420;2023-02-15T04:37:41;74.00;;;23.75;;
72573;SDS011;60603;52.548;13.420;2023-02-15T04:40:08;85.80;;;26.88;;
72573;SDS011;60603;52.548;13.420;2023-02-15T04:42:36;82.47;;;26.98;;
72573;SDS011;60603;52.548;13.420;2023-02-15T04:45:02;78.25;;;26.48;;
72573;SDS011;60603;52.548;13.420;2023-02-15T04:47:28;83.32;;;28.08;;
72573;SDS011;60603;52.548;13.420;2023-02-15T04:49:54;71.88;;;25.23;;
72573;SDS011;60603;52.548;13.420;2023-02-15T04:52:20;86.13;;;29.05;;
72573;SDS011;60603;52.548;13.420;2023-02-15T04:54:46;79.78;;;26.52;;
72573;SDS011;60603;52.548;13.420;2023-02-15T04:57:12;75.70;;;27.25;;
72573;SDS011;60603;52.548;13.420;2023-02-15T04:59:38;78.22;;;26.98;;
72573;SDS011;60603;52.548;13.420;2023-02-15T05:02:04;79.30;;;25.20;;
72573;SDS011;60603;52.548;13.420;2023-02-15T05:04:30;73.25;;;25.17;;
72573;SDS011;60603;52.548;13.420;2023-02-15T05:06:56;80.25;;;27.23;;
72573;SDS011;60603;52.548;13.420;2023-02-15T05:09:21;75.32;;;25.67;;
72573;SDS011;60603;52.548;13.420;2023-02-15T05:11:47;71.97;;;24.90;;
72573;SDS011;60603;52.548;13.420;2023-02-15T05:14:13;76.72;;;24.73;;
72573;SDS011;60603;52.548;13.420;2023-02-15T05:16:39;74.15;;;26.20;;
72573;SDS011;60603;52.548;13.420;2023-02-15T05:19:05;67.75;;;23.85;;
72573;SDS011;60603;52.548;13.420;2023-02-15T05:21:31;74.88;;;25.58;;
72573;SDS011;60603;52.548;13.420;2023-02-15T05:23:57;74.32;;;24.60;;
72573;SDS011;60603;52.548;13.420;2023-02-15T05:26:23;75.85;;;25.00;;
72573;SDS011;60603;52.548;13.420;2023-02-15T05:29:08;67.15;;;24.20;;
72573;SDS011;60603;52.548;13.420;2023-02-15T05:31:35;72.15;;;23.10;;
72573;SDS011;60603;52.548;13.420;2023-02-15T05:34:01;80.45;;;26.35;;
72573;SDS011;60603;52.548;13.420;2023-02-15T05:36:27;71.13;;;24.50;;
72573;SDS011;60603;52.548;13.420;2023-02-15T05:38:54;82.65;;;25.65;;
72573;SDS011;60603;52.548;13.420;2023-02-15T05:41:20;76.32;;;24.92;;
72573;SDS011;60603;52.548;13.420;2023-02-15T05:43:46;70.93;;;25.30;;
72573;SDS011;60603;52.548;13.420;2023-02-15T05:46:13;75.63;;;24.88;;
72573;SDS011;60603;52.548;13.420;2023-02-15T05:48:39;76.50;;;25.10;;
72573;SDS011;60603;52.548;13.420;2023-02-15T05:51:09;76.18;;;23.55;;
72573;SDS011;60603;52.548;13.420;2023-02-15T05:53:41;87.00;;;26.15;;
72573;SDS011;60603;52.548;13.420;2023-02-15T05:56:07;84.82;;;27.27;;
72573;SDS011;60603;52.548;13.420;2023-02-15T05:58:35;78.93;;;26.00;;
72573;SDS011;60603;52.548;13.420;2023-02-15T06:03:34;84.30;;;27.58;;
72573;SDS011;60603;52.548;13.420;2023-02-15T06:06:01;85.00;;;27.50;;
72573;SDS011;60603;52.548;13.420;2023-02-15T06:08:27;81.53;;;24.83;;
72573;SDS011;60603;52.548;13.420;2023-02-15T06:10:53;90.03;;;26.25;;
72573;SDS011;60603;52.548;13.420;2023-02-15T06:13:19;98.32;;;29.02;;
72573;SDS011;60603;52.548;13.420;2023-02-15T06:15:45;86.55;;;26.92;;
72573;SDS011;60603;52.548;13.420;2023-02-15T06:18:11;92.72;;;27.52;;
72573;SDS011;60603;52.548;13.420;2023-02-15T06:20:37;96.68;;;28.23;;
72573;SDS011;60603;52.548;13.420;2023-02-15T06:23:02;92.90;;;25.38;;
72573;SDS011;60603;52.548;13.420;2023-02-15T06:25:28;84.70;;;25.98;;
72573;SDS011;60603;52.548;13.420;2023-02-15T06:27:54;84.88;;;25.33;;
72573;SDS011;60603;52.548;13.420;2023-02-15T06:30:20;99.95;;;28.38;;
72573;SDS011;60603;52.548;13.420;2023-02-15T06:32:46;94.55;;;28.77;;
72573;SDS011;60603;52.548;13.420;2023-02-15T06:35:12;92.32;;;27.15;;
72573;SDS011;60603;52.548;13.420;2023-02-15T06:37:38;77.07;;;26.05;;
72573;SDS011;60603;52.548;13.420;2023-02-15T06:40:04;101.35;;;28.95;;
72573;SDS011;60603;52.548;13.420;2023-02-15T06:42:31;102.68;;;28.40;;
72573;SDS011;60603;52.548;13.420;2023-02-15T06:44:57;111.47;;;28.90;;
72573;SDS011;60603;52.548;13.420;2023-02-15T06:47:24;79.43;;;25.33;;
72573;SDS011;60603;52.548;13.420;2023-02-15T06:49:50;84.82;;;26.55;;
72573;SDS011;60603;52.548;13.420;2023-02-15T06:52:16;89.18;;;28.17;;
72573;SDS011;60603;52.548;13.420;2023-02-15T06:54:42;99.18;;;28.58;;
72573;SDS011;60603;52.548;13.420;2023-02-15T06:57:07;92.25;;;27.23;;
72573;SDS011;60603;52.548;13.420;2023-02-15T06:59:35;97.28;;;27.30;;
72573;SDS011;60603;52.548;13.420;2023-02-15T07:02:00;86.43;;;27.23;;
72573;SDS011;60603;52.548;13.420;2023-02-15T07:04:26;108.30;;;28.92;;
72573;SDS011;60603;52.548;13.420;2023-02-15T07:06:54;94.85;;;27.02;;
72573;SDS011;60603;52.548;13.420;2023-02-15T07:09:21;96.60;;;26.95;;
72573;SDS011;60603;52.548;13.420;2023-02-15T07:11:47;94.25;;;27.42;;
72573;SDS011;60603;52.548;13.420;2023-02-15T07:14:31;88.95;;;24.88;;
72573;SDS011;60603;52.548;13.420;2023-02-15T07:16:57;107.00;;;26.77;;
72573;SDS011;60603;52.548;13.420;2023-02-15T07:19:23;90.72;;;26.05;;
72573;SDS011;60603;52.548;13.420;2023-02-15T07:21:49;89.30;;;24.67;;
72573;SDS011;60603;52.548;13.420;2023-02-15T07:24:17;77.18;;;24.05;;
72573;SDS011;60603;52.548;13.420;2023-02-15T07:26:43;103.05;;;25.83;;
72573;SDS011;60603;52.548;13.420;2023-02-15T07:29:08;83.78;;;25.98;;
72573;SDS011;60603;52.548;13.420;2023-02-15T07:31:34;97.53;;;26.42;;
72573;SDS011;60603;52.548;13.420;2023-02-15T07:34:00;84.97;;;25.67;;
72573;SDS011;60603;52.548;13.420;2023-02-15T07:36:26;97.28;;;24.83;;
72573;SDS011;60603;52.548;13.420;2023-02-15T07:38:52;93.95;;;24.83;;
72573;SDS011;60603;52.548;13.420;2023-02-15T07:41:18;108.78;;;28.08;;
72573;SDS011;60603;52.548;13.420;2023-02-15T07:43:44;79.80;;;23.00;;
72573;SDS011;60603;52.548;13.420;2023-02-15T07:46:12;82.75;;;24.45;;
72573;SDS011;60603;52.548;13.420;2023-02-15T07:48:53;109.25;;;24.80;;
72573;SDS011;60603;52.548;13.420;2023-02-15T07:51:19;94.97;;;25.77;;
72573;SDS011;60603;52.548;13.420;2023-02-15T07:53:45;85.25;;;23.27;;
72573;SDS011;60603;52.548;13.420;2023-02-15T07:56:12;76.97;;;22.33;;
72573;SDS011;60603;52.548;13.420;2023-02-15T07:58:39;80.95;;;24.05;;
72573;SDS011;60603;52.548;13.420;2023-02-15T08:01:21;82.50;;;24.20;;
72573;SDS011;60603;52.548;13.420;2023-02-15T08:03:49;73.63;;;23.95;;
72573;SDS011;60603;52.548;13.420;2023-02-15T08:06:15;74.00;;;23.98;;
72573;SDS011;60603;52.548;13.420;2023-02-15T08:08:41;71.22;;;23.52;;
72573;SDS011;60603;52.548;13.420;2023-02-15T08:11:14;76.95;;;22.67;;
72573;SDS011;60603;52.548;13.420;2023-02-15T08:14:01;68.57;;;24.55;;
72573;SDS011;60603;52.548;13.420;2023-02-15T08:16:43;69.38;;;23.10;;
72573;SDS011;60603;52.548;13.420;2023-02-15T08:19:16;57.15;;;21.80;;
72573;SDS011;60603;52.548;13.420;2023-02-15T08:21:44;70.68;;;22.88;;
72573;SDS011;60603;52.548;13.420;2023-02-15T08:24:13;66.00;;;23.38;;
72573;SDS011;60603;52.548;13.420;2023-02-15T08:26:40;63.92;;;22.45;;
72573;SDS011;60603;52.548;13.420;2023-02-15T08:29:07;61.08;;;22.48;;
72573;SDS011;60603;52.548;13.420;2023-02-15T08:31:33;61.13;;;21.33;;
72573;SDS011;60603;52.548;13.420;2023-02-15T08:34:00;64.70;;;22.38;;
72573;SDS011;60603;52.548;13.420;2023-02-15T08:36:27;66.68;;;23.00;;
72573;SDS011;60603;52.548;13.420;2023-02-15T08:38:55;68.70;;;22.88;;
72573;SDS011;60603;52.548;13.420;2023-02-15T08:41:26;66.72;;;22.25;;
72573;SDS011;60603;52.548;13.420;2023-02-15T08:43:56;64.82;;;22.80;;
72573;SDS011;60603;52.548;13.420;2023-02-15T08:46:23;60.17;;;22.08;;
72573;SDS011;60603;52.548;13.420;2023-02-15T08:48:50;63.53;;;21.70;;
72573;SDS011;60603;52.548;13.420;2023-02-15T08:51:20;74.65;;;26.67;;
72573;SDS011;60603;52.548;13.420;2023-02-15T08:53:51;65.15;;;22.75;;
72573;SDS011;60603;52.548;13.420;2023-02-15T08:56:19;66.78;;;21.35;;
72573;SDS011;60603;52.548;13.420;2023-02-15T08:58:47;61.53;;;21.70;;
72573;SDS011;60603;52.548;13.420;2023-02-15T09:01:15;67.38;;;23.08;;
72573;SDS011;60603;52.548;13.420;2023-02-15T09:03:47;59.15;;;22.20;;
72573;SDS011;60603;52.548;13.420;2023-02-15T09:06:15;62.10;;;21.85;;
72573;SDS011;60603;52.548;13.420;2023-02-15T09:08:44;58.00;;;20.65;;
72573;SDS011;60603;52.548;13.420;2023-02-15T09:13:37;60.00;;;21.00;;
72573;SDS011;60603;52.548;13.420;2023-02-15T09:16:05;57.45;;;21.95;;
72573;SDS011;60603;52.548;13.420;2023-02-15T09:18:33;61.72;;;22.20;;
72573;SDS011;60603;52.548;13.420;2023-02-15T09:21:09;54.17;;;21.00;;
72573;SDS011;60603;52.548;13.420;2023-02-15T09:23:42;61.33;;;20.70;;
72573;SDS011;60603;52.548;13.420;2023-02-15T09:26:10;49.08;;;19.52;;
72573;SDS011;60603;52.548;13.420;2023-02-15T09:28:40;54.95;;;19.15;;
72573;SDS011;60603;52.548;13.420;2023-02-15T09:33:38;61.90;;;20.80;;
72573;SDS011;60603;52.548;13.420;2023-02-15T09:36:06;63.30;;;21.35;;
72573;SDS011;60603;52.548;13.420;2023-02-15T09:38:40;60.75;;;22.42;;
72573;SDS011;60603;52.548;13.420;2023-02-15T09:43:57;55.20;;;19.52;;
72573;SDS011;60603;52.548;13.420;2023-02-15T09:46:47;53.47;;;21.30;;
72573;SDS011;60603;52.548;13.420;2023-02-15T09:54:55;51.90;;;19.60;;
72573;SDS011;60603;52.548;13.420;2023-02-15T10:00:36;59.60;;;21.35;;
72573;SDS011;60603;52.548;13.420;2023-02-15T10:11:36;55.33;;;19.95;;
72573;SDS011;60603;52.548;13.420;2023-02-15T10:17:02;52.10;;;20.02;;
72573;SDS011;60603;52.548;13.420;2023-02-15T10:19:35;53.67;;;20.02;;
72573;SDS011;60603;52.548;13.420;2023-02-15T10:25:21;47.95;;;18.90;;
72573;SDS011;60603;52.548;13.420;2023-02-15T10:27:51;49.33;;;19.33;;
72573;SDS011;60603;52.548;13.420;2023-02-15T10:30:27;49.63;;;19.58;;
72573;SDS011;60603;52.548;13.420;2023-02-15T10:33:03;50.92;;;19.75;;
72573;SDS011;60603;52.548;13.420;2023-02-15T10:35:56;43.88;;;18.48;;
72573;SDS011;60603;52.548;13.420;2023-02-15T10:38:44;45.05;;;19.15;;
72573;SDS011;60603;52.548;13.420;2023-02-15T10:53:23;36.35;;;16.33;;
72573;SDS011;60603;52.548;13.420;2023-02-15T10:55:55;41.42;;;17.15;;
72573;SDS011;60603;52.548;13.420;2023-02-15T11:06:23;43.88;;;16.20;;
72573;SDS011;60603;52.548;13.420;2023-02-15T11:08:53;35.13;;;15.30;;
72573;SDS011;60603;52.548;13.420;2023-02-15T11:11:22;34.90;;;15.95;;
72573;SDS011;60603;52.548;13.420;2023-02-15T11:13:52;44.35;;;16.60;;
72573;SDS011;60603;52.548;13.420;2023-02-15T11:16:21;32.15;;;15.80;;
72573;SDS011;60603;52.548;13.420;2023-02-15T11:18:51;43.10;;;16.73;;
72573;SDS011;60603;52.548;13.420;2023-02-15T11:23:53;35.83;;;15.63;;
72573;SDS011;60603;52.548;13.420;2023-02-15T11:31:55;34.72;;;16.05;;
72573;SDS011;60603;52.548;13.420;2023-02-15T11:34:25;38.28;;;15.63;;
72573;SDS011;60603;52.548;13.420;2023-02-15T11:37:08;33.72;;;15.45;;
72573;SDS011;60603;52.548;13.420;2023-02-15T11:39:36;36.25;;;15.80;;
72573;SDS011;60603;52.548;13.420;2023-02-15T11:42:07;32.10;;;15.07;;
72573;SDS011;60603;52.548;13.420;2023-02-15T11:44:38;32.28;;;15.15;;
72573;SDS011;60603;52.548;13.420;2023-02-15T11:49:35;33.85;;;14.77;;
72573;SDS011;60603;52.548;13.420;2023-02-15T11:52:02;35.13;;;15.02;;
72573;SDS011;60603;52.548;13.420;2023-02-15T11:54:32;38.40;;;15.05;;
72573;SDS011;60603;52.548;13.420;2023-02-15T11:57:03;32.20;;;14.25;;
72573;SDS011;60603;52.548;13.420;2023-02-15T11:59:40;39.75;;;15.05;;
72573;SDS011;60603;52.548;13.420;2023-02-15T12:02:14;36.20;;;14.77;;
72573;SDS011;60603;52.548;13.420;2023-02-15T12:04:52;30.65;;;13.95;;
72573;SDS011;60603;52.548;13.420;2023-02-15T12:07:35;36.75;;;15.98;;
72573;SDS011;60603;52.548;13.420;2023-02-15T12:10:10;29.23;;;13.13;;
72573;SDS011;60603;52.548;13.420;2023-02-15T12:13:24;33.85;;;13.93;;
72573;SDS011;60603;52.548;13.420;2023-02-15T12:15:44;31.90;;;13.82;;
72573;SDS011;60603;52.548;13.420;2023-02-15T12:20:43;35.80;;;14.38;;
72573;SDS011;60603;52.548;13.420;2023-02-15T12:23:12;32.65;;;14.70;;
72573;SDS011;60603;52.548;13.420;2023-02-15T12:28:24;31.65;;;15.10;;
72573;SDS011;60603;52.548;13.420;2023-02-15T12:30:52;34.60;;;14.48;;
72573;SDS011;60603;52.548;13.420;2023-02-15T12:38:38;29.63;;;13.48;;
72573;SDS011;60603;52.548;13.420;2023-02-15T12:41:05;28.30;;;12.68;;
72573;SDS011;60603;52.548;13.420;2023-02-15T12:47:04;28.80;;;13.85;;
72573;SDS011;60603;52.548;13.420;2023-02-15T12:49:35;29.63;;;13.88;;
72573;SDS011;60603;52.548;13.420;2023-02-15T12:52:05;29.38;;;13.02;;
72573;SDS011;60603;52.548;13.420;2023-02-15T12:54:46;35.85;;;15.57;;
72573;SDS011;60603;52.548;13.420;2023-02-15T12:57:25;30.98;;;13.60;;
72573;SDS011;60603;52.548;13.420;2023-02-15T13:00:00;28.27;;;12.85;;
72573;SDS011;60603;52.548;13.420;2023-02-15T13:02:47;29.90;;;13.38;;
72573;SDS011;60603;52.548;13.420;2023-02-15T13:07:50;33.78;;;13.30;;
72573;SDS011;60603;52.548;13.420;2023-02-15T13:10:28;31.67;;;13.70;;
72573;SDS011;60603;52.548;13.420;2023-02-15T13:12:56;29.08;;;14.27;;
72573;SDS011;60603;52.548;13.420;2023-02-15T13:15:24;29.77;;;12.95;;
72573;SDS011;60603;52.548;13.420;2023-02-15T13:17:55;26.17;;;13.18;;
72573;SDS011;60603;52.548;13.420;2023-02-15T13:20:22;31.17;;;13.05;;
72573;SDS011;60603;52.548;13.420;2023-02-15T13:25:24;30.73;;;13.65;;
72573;SDS011;60603;52.548;13.420;2023-02-15T13:27:53;33.08;;;13.70;;
72573;SDS011;60603;52.548;13.420;2023-02-15T13:30:31;28.05;;;14.80;;
72573;SDS011;60603;52.548;13.420;2023-02-15T13:33:04;28.83;;;13.13;;
72573;SDS011;60603;52.548;13.420;2023-02-15T13:35:42;28.77;;;13.68;;
72573;SDS011;60603;52.548;13.420;2023-02-15T13:38:26;32.13;;;13.88;;
72573;SDS011;60603;52.548;13.420;2023-02-15T13:41:05;34.47;;;14.10;;
72573;SDS011;60603;52.548;13.420;2023-02-15T14:08:08;26.85;;;13.57;;
72573;SDS011;60603;52.548;13.420;2023-02-15T14:16:20;27.20;;;12.98;;
72573;SDS011;60603;52.548;13.420;2023-02-15T14:18:55;26.75;;;12.82;;
72573;SDS011;60603;52.548;13.420;2023-02-15T14:21:31;34.03;;;12.95;;
72573;SDS011;60603;52.548;13.420;2023-02-15T14:29:48;26.70;;;12.20;;
72573;SDS011;60603;52.548;13.420;2023-02-15T14:32:18;28.50;;;12.52;;
72573;SDS011;60603;52.548;13.420;2023-02-15T14:35:02;29.38;;;13.02;;
72573;SDS011;60603;52.548;13.420;2023-02-15T14:40:34;28.42;;;13.18;;
72573;SDS011;60603;52.548;13.420;2023-02-15T14:43:24;28.42;;;13.25;;
72573;SDS011;60603;52.548;13.420;2023-02-15T14:45:58;25.55;;;12.60;;
72573;SDS011;60603;52.548;13.420;2023-02-15T14:48:46;25.95;;;12.93;;
72573;SDS011;60603;52.548;13.420;2023-02-15T14:54:09;24.45;;;12.25;;
72573;SDS011;60603;52.548;13.420;2023-02-15T14:56:36;29.67;;;12.68;;
72573;SDS011;60603;52.548;13.420;2023-02-15T14:59:12;29.52;;;13.07;;
72573;SDS011;60603;52.548;13.420;2023-02-15T15:01:40;28.73;;;14.05;;
72573;SDS011;60603;52.548;13.420;2023-02-15T15:04:09;29.35;;;13.55;;
72573;SDS011;60603;52.548;13.420;2023-02-15T15:11:44;28.50;;;12.95;;
72573;SDS011;60603;52.548;13.420;2023-02-15T15:16:59;27.92;;;12.50;;
72573;SDS011;60603;52.548;13.420;2023-02-15T15:22:18;27.65;;;12.80;;
72573;SDS011;60603;52.548;13.420;2023-02-15T15:24:47;27.88;;;12.63;;
72573;SDS011;60603;52.548;13.420;2023-02-15T15:30:07;27.52;;;11.88;;
72573;SDS011;60603;52.548;13.420;2023-02-15T15:35:27;32.83;;;14.02;;
72573;SDS011;60603;52.548;13.420;2023-02-15T15:48:50;34.75;;;13.20;;
72573;SDS011;60603;52.548;13.420;2023-02-15T15:53:48;29.17;;;14.32;;
72573;SDS011;60603;52.548;13.420;2023-02-15T15:56:23;26.17;;;12.50;;
72573;SDS011;60603;52.548;13.420;2023-02-15T15:59:06;28.52;;;12.27;;
72573;SDS011;60603;52.548;13.420;2023-02-15T16:01:43;29.10;;;12.98;;
72573;SDS011;60603;52.548;13.420;2023-02-15T16:04:11;30.08;;;13.77;;
72573;SDS011;60603;52.548;13.420;2023-02-15T16:06:58;29.42;;;12.40;;
72573;SDS011;60603;52.548;13.420;2023-02-15T16:10:04;28.50;;;12.48;;
72573;SDS011;60603;52.548;13.420;2023-02-15T16:12:33;27.88;;;12.52;;
72573;SDS011;60603;52.548;13.420;2023-02-15T16:15:01;27.58;;;13.15;;
72573;SDS011;60603;52.548;13.420;2023-02-15T16:17:30;28.05;;;12.40;;
72573;SDS011;60603;52.548;13.420;2023-02-15T16:20:00;27.38;;;12.65;;
72573;SDS011;60603;52.548;13.420;2023-02-15T16:22:29;27.33;;;13.45;;
72573;SDS011;60603;52.548;13.420;2023-02-15T16:27:46;24.50;;;12.38;;
72573;SDS011;60603;52.548;13.420;2023-02-15T16:30:32;24.83;;;12.10;;
72573;SDS011;60603;52.548;13.420;2023-02-15T16:33:09;27.58;;;12.60;;
72573;SDS011;60603;52.548;13.420;2023-02-15T16:35:39;27.80;;;11.77;;
72573;SDS011;60603;52.548;13.420;2023-02-15T16:38:19;28.67;;;14.13;;
72573;SDS011;60603;52.548;13.420;2023-02-15T16:40:52;30.58;;;13.32;;
72573;SDS011;60603;52.548;13.420;2023-02-15T16:45:53;29.25;;;12.25;;
72573;SDS011;60603;52.548;13.420;2023-02-15T16:48:24;26.70;;;13.88;;
72573;SDS011;60603;52.548;13.420;2023-02-15T16:50:53;31.60;;;13.35;;
72573;SDS011;60603;52.548;13.420;2023-02-15T16:53:27;30.95;;;13.90;;
72573;SDS011;60603;52.548;13.420;2023-02-15T16:55:54;35.00;;;14.30;;
72573;SDS011;60603;52.548;13.420;2023-02-15T16:58:26;33.63;;;15.15;;
72573;SDS011;60603;52.548;13.420;2023-02-15T17:01:02;35.03;;;14.68;;
72573;SDS011;60603;52.548;13.420;2023-02-15T17:03:28;29.45;;;14.43;;
72573;SDS011;60603;52.548;13.420;2023-02-15T17:05:56;33.13;;;14.13;;
72573;SDS011;60603;52.548;13.420;2023-02-15T17:14:27;35.67;;;14.18;;
72573;SDS011;60603;52.548;13.420;2023-02-15T17:19:16;30.38;;;14.68;;
72573;SDS011;60603;52.548;13.420;2023-02-15T17:21:55;31.73;;;14.20;;
72573;SDS011;60603;52.548;13.420;2023-02-15T17:26:57;29.48;;;13.45;;
72573;SDS011;60603;52.548;13.420;2023-02-15T17:30:00;35.08;;;16.02;;
72573;SDS011;60603;52.548;13.420;2023-02-15T17:32:25;32.05;;;15.00;;
72573;SDS011;60603;52.548;13.420;2023-02-15T17:39:58;33.22;;;15.68;;
72573;SDS011;60603;52.548;13.420;2023-02-15T17:42:25;32.42;;;14.27;;
72573;SDS011;60603;52.548;13.420;2023-02-15T17:44:51;35.25;;;15.63;;
72573;SDS011;60603;52.548;13.420;2023-02-15T17:47:19;40.20;;;16.08;;
72573;SDS011;60603;52.548;13.420;2023-02-15T17:49:49;34.53;;;15.60;;
72573;SDS011;60603;52.548;13.420;2023-02-15T17:52:15;36.60;;;14.98;;
72573;SDS011;60603;52.548;13.420;2023-02-15T17:54:42;38.55;;;16.23;;
72573;SDS011;60603;52.548;13.420;2023-02-15T17:57:28;32.30;;;13.77;;
72573;SDS011;60603;52.548;13.420;2023-02-15T17:59:54;41.65;;;17.27;;